Datchet, United Kingdom
Current Conditions -  °F | °C
As of 7:20 AM on Saturday 29 Nov 2014 (Local Time) from EGLL Reporting Station
Clear Clear  
Wind Chill: 50°   Ceiling: Unl
Heat Index: 50°   Visibility: 4mi
Dew Point: 46°   Wind: 2mph
Humidity: 87%   Direction: 70°ENE
Pressure: 29.8"   Gusts: NA
Location:  51.48°N, 0.58°W
Report Text: EGLL 290720Z 07002KT 7000 NSC 10/08 Q1009 NOSIG
Loading
Personal Weather Stations






























Interactive Weather Map New forecast layout! Learn more

10-Day Weather Forecast

Advertisements
Track Severe Weather on mobile